Time,TemperatureF,DewpointF,PressureIn,WindDirection,WindDirectionDegrees,WindSpeedMPH,WindSpeedGustMPH,Humidity,HourlyPrecipIn,Conditions,Clouds,dailyrainin,SoftwareType,DateUTC
2013-02-11 00:01:00,48.1,45.6,29.59,South,169,12.0,21.0,91,0.00,,---,0.00,VWS V14.01,2013-02-11 05:01:00,
2013-02-11 00:16:00,48.6,45.8,29.60,SSW,194,6.0,19.0,90,0.00,,---,0.00,VWS V14.01,2013-02-11 05:16:00,
2013-02-11 00:31:00,49.0,45.6,29.60,SSW,192,10.0,19.0,88,0.00,,---,0.00,VWS V14.01,2013-02-11 05:31:00,
2013-02-11 00:46:00,49.2,45.8,29.60,WSW,238,9.0,23.0,88,0.00,,---,0.00,VWS V14.01,2013-02-11 05:46:00,
2013-02-11 01:01:00,48.8,45.7,29.60,SW,215,7.0,18.0,89,0.00,,---,0.00,VWS V14.01,2013-02-11 06:01:00,
2013-02-11 01:16:00,48.6,45.5,29.60,SW,229,9.0,13.0,89,0.00,,---,0.00,VWS V14.01,2013-02-11 06:16:00,
2013-02-11 01:31:00,48.7,45.3,29.60,WSW,242,7.0,26.0,88,0.00,,---,0.00,VWS V14.01,2013-02-11 06:31:00,
2013-02-11 01:46:00,48.5,43.0,29.60,SW,227,12.0,25.0,81,0.00,,---,0.00,VWS V14.01,2013-02-11 06:46:00,
2013-02-11 02:01:00,47.7,38.4,29.60,SW,234,10.0,25.0,70,0.01,,---,0.01,VWS V14.01,2013-02-11 07:01:00,
2013-02-11 02:16:00,46.7,38.2,29.59,WSW,238,13.0,26.0,72,0.01,,---,0.01,VWS V14.01,2013-02-11 07:16:00,
2013-02-11 02:31:00,46.2,37.7,29.59,SW,219,18.0,24.0,72,0.01,,---,0.01,VWS V14.01,2013-02-11 07:31:00,
2013-02-11 02:46:00,45.5,36.3,29.60,SW,232,18.0,28.0,70,0.01,,---,0.01,VWS V14.01,2013-02-11 07:46:00,
2013-02-11 03:01:00,44.6,35.4,29.59,SW,232,7.0,18.0,70,0.01,,---,0.01,VWS V14.01,2013-02-11 08:01:00,
2013-02-11 03:16:00,44.2,35.0,29.60,WSW,250,14.0,20.0,70,0.00,,---,0.01,VWS V14.01,2013-02-11 08:16:00,
2013-02-11 03:31:00,43.7,34.9,29.60,SW,221,9.0,23.0,71,0.00,,---,0.01,VWS V14.01,2013-02-11 08:31:00,
2013-02-11 03:46:00,42.8,34.8,29.60,SW,236,8.0,21.0,73,0.00,,---,0.01,VWS V14.01,2013-02-11 08:46:00,
2013-02-11 04:01:00,42.2,34.9,29.60,WSW,246,6.0,18.0,75,0.00,,---,0.01,VWS V14.01,2013-02-11 09:01:00,
2013-02-11 04:16:00,41.7,34.4,29.60,WSW,248,7.0,22.0,75,0.00,,---,0.01,VWS V14.01,2013-02-11 09:16:00,
2013-02-11 04:31:00,41.0,33.4,29.61,SW,222,19.0,22.0,74,0.00,,---,0.01,VWS V14.01,2013-02-11 09:31:00,
2013-02-11 04:46:00,40.3,32.7,29.61,SW,230,11.0,22.0,74,0.00,,---,0.01,VWS V14.01,2013-02-11 09:46:00,
2013-02-11 05:01:00,39.9,31.6,29.62,WSW,240,8.0,28.0,72,0.00,,---,0.01,VWS V14.01,2013-02-11 10:01:00,
2013-02-11 05:16:00,39.6,31.3,29.62,SSW,193,8.0,25.0,72,0.00,,---,0.01,VWS V14.01,2013-02-11 10:16:00,
2013-02-11 05:31:00,38.9,31.7,29.62,SW,227,8.0,19.0,75,0.00,,---,0.01,VWS V14.01,2013-02-11 10:31:00,
2013-02-11 05:46:00,38.6,31.0,29.63,West,264,10.0,27.0,74,0.00,,---,0.01,VWS V14.01,2013-02-11 10:46:00,
2013-02-11 06:01:00,37.6,29.4,29.64,SSW,211,7.0,32.0,72,0.00,,---,0.01,VWS V14.01,2013-02-11 11:01:00,
2013-02-11 06:16:00,37.0,29.2,29.65,West,277,12.0,27.0,73,0.00,,---,0.01,VWS V14.01,2013-02-11 11:16:00,
2013-02-11 06:31:00,36.3,29.1,29.66,SW,231,17.0,26.0,75,0.00,,---,0.01,VWS V14.01,2013-02-11 11:31:00,
2013-02-11 06:46:00,35.7,27.9,29.67,West,261,18.0,25.0,73,0.00,,---,0.01,VWS V14.01,2013-02-11 11:46:00,
2013-02-11 07:01:00,35.0,26.9,29.67,West,266,13.0,30.0,72,0.00,,---,0.01,VWS V14.01,2013-02-11 12:01:00,
2013-02-11 07:16:00,34.5,26.8,29.68,SW,234,9.0,22.0,73,0.00,,---,0.01,VWS V14.01,2013-02-11 12:16:00,
2013-02-11 07:31:00,34.3,26.2,29.69,West,268,24.0,31.0,72,0.00,,---,0.01,VWS V14.01,2013-02-11 12:31:00,
2013-02-11 07:46:00,34.1,26.0,29.69,WSW,250,12.0,33.0,72,0.00,,---,0.01,VWS V14.01,2013-02-11 12:46:00,
2013-02-11 08:01:00,34.0,26.3,29.69,WSW,251,12.0,29.0,73,0.00,,---,0.01,VWS V14.01,2013-02-11 13:01:00,
2013-02-11 08:16:00,33.7,27.0,29.70,West,264,15.0,22.0,76,0.00,,---,0.01,VWS V14.01,2013-02-11 13:16:00,
2013-02-11 08:31:00,33.3,26.9,29.70,WSW,237,12.0,18.0,77,0.00,,---,0.01,VWS V14.01,2013-02-11 13:31:00,
2013-02-11 08:46:00,33.1,26.7,29.71,WSW,250,12.0,22.0,77,0.00,,---,0.01,VWS V14.01,2013-02-11 13:46:00,
2013-02-11 09:01:00,33.0,26.9,29.72,West,262,13.0,23.0,78,0.00,,---,0.01,VWS V14.01,2013-02-11 14:01:00,
2013-02-11 09:16:00,33.4,25.4,29.72,West,270,8.0,23.0,72,0.00,,---,0.01,VWS V14.01,2013-02-11 14:16:00,
2013-02-11 09:31:00,33.1,25.4,29.73,WSW,238,15.0,21.0,73,0.00,,---,0.01,VWS V14.01,2013-02-11 14:31:00,
2013-02-11 09:46:00,32.9,24.9,29.74,WSW,244,12.0,22.0,72,0.00,,---,0.01,VWS V14.01,2013-02-11 14:46:00,
2013-02-11 10:01:00,32.9,25.2,29.73,WSW,239,18.0,22.0,73,0.00,,---,0.01,VWS V14.01,2013-02-11 15:01:00,
2013-02-11 10:16:00,32.9,25.2,29.73,SW,229,11.0,25.0,73,0.00,,---,0.01,VWS V14.01,2013-02-11 15:16:00,
2013-02-11 10:31:00,32.9,25.2,29.74,SW,215,14.0,25.0,73,0.00,,---,0.01,VWS V14.01,2013-02-11 15:31:00,
2013-02-11 10:46:00,32.9,25.5,29.73,West,260,15.0,27.0,74,0.00,,---,0.01,VWS V14.01,2013-02-11 15:46:00,
2013-02-11 11:01:00,32.8,25.8,29.74,WSW,248,14.0,24.0,75,0.00,,---,0.01,VWS V14.01,2013-02-11 16:01:00,
2013-02-11 11:16:00,32.8,25.8,29.75,SW,234,19.0,23.0,75,0.00,,---,0.01,VWS V14.01,2013-02-11 16:16:00,
2013-02-11 11:31:00,32.8,25.4,29.75,WSW,258,16.0,21.0,74,0.00,,---,0.01,VWS V14.01,2013-02-11 16:31:00,
2013-02-11 11:46:00,32.8,25.8,29.76,SSW,195,10.0,20.0,75,0.00,,---,0.01,VWS V14.01,2013-02-11 16:46:00,
2013-02-11 12:01:00,32.9,25.5,29.76,West,269,11.0,26.0,74,0.00,,---,0.01,VWS V14.01,2013-02-11 17:01:00,
2013-02-11 12:16:00,33.0,26.0,29.77,WSW,258,18.0,24.0,75,0.00,,---,0.01,VWS V14.01,2013-02-11 17:16:00,
2013-02-11 12:31:00,33.0,25.3,29.78,West,261,13.0,25.0,73,0.00,,---,0.01,VWS V14.01,2013-02-11 17:31:00,
2013-02-11 12:46:00,32.9,25.2,29.78,WSW,246,20.0,26.0,73,0.00,,---,0.01,VWS V14.01,2013-02-11 17:46:00,
2013-02-11 13:01:00,33.1,24.7,29.78,WSW,244,9.0,27.0,71,0.00,,---,0.01,VWS V14.01,2013-02-11 18:01:00,
2013-02-11 13:16:00,32.9,25.2,29.79,SW,216,13.0,24.0,73,0.00,,---,0.01,VWS V14.01,2013-02-11 18:16:00,
2013-02-11 13:31:00,32.9,25.2,29.79,SW,224,14.0,28.0,73,0.00,,---,0.01,VWS V14.01,2013-02-11 18:31:00,
2013-02-11 13:46:00,32.8,25.4,29.79,WSW,242,10.0,26.0,74,0.00,,---,0.01,VWS V14.01,2013-02-11 18:46:00,
2013-02-11 14:01:00,32.8,25.4,29.80,WSW,255,16.0,21.0,74,0.00,,---,0.01,VWS V14.01,2013-02-11 19:01:00,
2013-02-11 14:16:00,32.9,25.2,29.81,SSW,213,16.0,27.0,73,0.00,,---,0.01,VWS V14.01,2013-02-11 19:16:00,
2013-02-11 14:31:00,32.9,24.9,29.82,South,173,16.0,33.0,72,0.00,,---,0.01,VWS V14.01,2013-02-11 19:31:00,
2013-02-11 14:46:00,32.8,25.1,29.82,WSW,254,16.0,28.0,73,0.00,,---,0.01,VWS V14.01,2013-02-11 19:46:00,
2013-02-11 15:01:00,32.5,25.1,29.83,WNW,282,14.0,25.0,74,0.00,,---,0.01,VWS V14.01,2013-02-11 20:01:00,
2013-02-11 15:16:00,32.4,25.4,29.83,SSW,212,16.0,27.0,75,0.00,,---,0.01,VWS V14.01,2013-02-11 20:16:00,
2013-02-11 15:31:00,32.3,25.3,29.83,West,259,14.0,26.0,75,0.00,,---,0.01,VWS V14.01,2013-02-11 20:31:00,
2013-02-11 15:46:00,32.3,25.6,29.85,WSW,240,16.0,25.0,76,0.00,,---,0.01,VWS V14.01,2013-02-11 20:46:00,
2013-02-11 16:01:00,32.0,25.0,29.85,West,269,20.0,25.0,75,0.00,,---,0.01,VWS V14.01,2013-02-11 21:01:00,
2013-02-11 16:16:00,32.1,24.8,29.85,SW,234,8.0,22.0,74,0.00,,---,0.01,VWS V14.01,2013-02-11 21:16:00,
2013-02-11 16:31:00,32.1,24.8,29.86,SW,221,9.0,24.0,74,0.00,,---,0.01,VWS V14.01,2013-02-11 21:31:00,
2013-02-11 16:46:00,32.1,24.8,29.87,SW,233,13.0,23.0,74,0.00,,---,0.01,VWS V14.01,2013-02-11 21:46:00,
2013-02-11 17:01:00,32.0,24.7,29.88,West,264,11.0,24.0,74,0.00,,---,0.01,VWS V14.01,2013-02-11 22:01:00,
2013-02-11 17:16:00,31.8,24.5,29.89,West,267,15.0,27.0,74,0.00,,---,0.01,VWS V14.01,2013-02-11 22:16:00,
2013-02-11 17:31:00,31.7,24.0,29.90,West,259,18.0,31.0,73,0.00,,---,0.01,VWS V14.01,2013-02-11 22:31:00,
2013-02-11 17:46:00,31.5,24.5,29.90,WSW,242,18.0,25.0,75,0.00,,---,0.01,VWS V14.01,2013-02-11 22:46:00,
2013-02-11 18:01:00,31.5,24.8,29.91,West,271,7.0,25.0,76,0.00,,---,0.01,VWS V14.01,2013-02-11 23:01:00,
2013-02-11 18:16:00,31.1,23.5,29.92,West,263,10.0,28.0,73,0.00,,---,0.01,VWS V14.01,2013-02-11 23:16:00,
2013-02-11 18:31:00,31.0,24.0,29.92,WSW,248,13.0,24.0,75,0.00,,---,0.01,VWS V14.01,2013-02-11 23:31:00,
2013-02-11 18:46:00,31.0,24.3,29.93,West,269,15.0,23.0,76,0.00,,---,0.01,VWS V14.01,2013-02-11 23:46:00,
2013-02-11 19:01:00,31.0,23.7,29.94,WSW,250,14.0,24.0,74,0.00,,---,0.01,VWS V14.01,2013-02-12 00:01:00,
2013-02-11 19:16:00,30.9,23.6,29.94,SW,223,12.0,24.0,74,0.00,,---,0.01,VWS V14.01,2013-02-12 00:16:00,
2013-02-11 19:31:00,30.8,23.2,29.95,West,268,17.0,28.0,73,0.00,,---,0.01,VWS V14.01,2013-02-12 00:31:00,
2013-02-11 19:46:00,30.6,24.0,29.95,WSW,251,7.0,23.0,76,0.00,,---,0.01,VWS V14.01,2013-02-12 00:46:00,
2013-02-11 20:01:00,30.5,24.2,29.96,WSW,255,17.0,22.0,77,0.00,,---,0.01,VWS V14.01,2013-02-12 01:01:00,
2013-02-11 20:16:00,30.4,24.1,29.96,West,263,12.0,21.0,77,0.00,,---,0.01,VWS V14.01,2013-02-12 01:16:00,
2013-02-11 20:31:00,30.3,24.0,29.97,West,281,13.0,20.0,77,0.00,,---,0.01,VWS V14.01,2013-02-12 01:31:00,
2013-02-11 20:46:00,30.2,24.2,29.97,West,275,11.0,18.0,78,0.00,,---,0.01,VWS V14.01,2013-02-12 01:46:00,
2013-02-11 21:01:00,30.3,24.0,29.97,WNW,289,14.0,20.0,77,0.00,,---,0.01,VWS V14.01,2013-02-12 02:01:00,
2013-02-11 21:16:00,30.2,23.9,29.98,West,279,13.0,21.0,77,0.00,,---,0.01,VWS V14.01,2013-02-12 02:16:00,
2013-02-11 21:31:00,30.0,23.4,29.98,West,261,15.0,25.0,76,0.00,,---,0.01,VWS V14.01,2013-02-12 02:31:00,
2013-02-11 21:46:00,30.0,23.4,29.98,WNW,284,20.0,26.0,76,0.00,,---,0.01,VWS V14.01,2013-02-12 02:46:00,
2013-02-11 22:01:00,29.8,23.2,29.99,West,271,12.0,22.0,76,0.00,,---,0.01,VWS V14.01,2013-02-12 03:01:00,
2013-02-11 22:16:00,29.6,22.7,29.99,West,262,15.0,23.0,75,0.00,,---,0.01,VWS V14.01,2013-02-12 03:16:00,
2013-02-11 22:31:00,29.5,22.2,29.99,West,279,15.0,22.0,74,0.00,,---,0.01,VWS V14.01,2013-02-12 03:31:00,
2013-02-11 22:46:00,29.5,22.6,30.00,West,259,12.0,22.0,75,0.00,,---,0.01,VWS V14.01,2013-02-12 03:46:00,
2013-02-11 23:01:00,29.4,22.8,30.00,WSW,239,10.0,19.0,76,0.00,,---,0.01,VWS V14.01,2013-02-12 04:01:00,
2013-02-11 23:16:00,29.4,22.5,30.01,WNW,286,9.0,19.0,75,0.00,,---,0.01,VWS V14.01,2013-02-12 04:16:00,
2013-02-11 23:31:00,29.4,22.5,30.01,WNW,284,14.0,25.0,75,0.00,,---,0.01,VWS V14.01,2013-02-12 04:31:00,
2013-02-11 23:46:00,29.4,22.8,30.02,West,276,11.0,21.0,76,0.00,,---,0.01,VWS V14.01,2013-02-12 04:46:00,